Time;durP1;ratioP1;P1;durP2;ratioP2;P2;SDS_P1;SDS_P2;PMS_P1;PMS_P2;Temp;Humidity;BMP_temperature;BMP_pressure;BME280_temperature;BME280_humidity;BME280_pressure;Samples;Min_cycle;Max_cycle;Signal;HPM_P1;HPM_P2
2023/08/01 00:01:27;;;;;;;;;;;24.40;52.80;;;;;;5030272;28;82893;-52
2023/08/01 00:03:53;;;;;;;;;;;24.40;52.90;;;;;;5032713;28;82052;-50
2023/08/01 00:06:19;;;;;;;;;;;24.40;52.90;;;;;;5038893;28;82680;-54
2023/08/01 00:08:45;;;;;;;;;;;24.40;52.90;;;;;;5039879;28;82947;-53
2023/08/01 00:11:11;;;;;;;;;;;24.40;52.80;;;;;;5050572;27;85796;-50
2023/08/01 00:13:37;;;;;;;;;;;24.40;52.90;;;;;;5038418;28;84704;-52
2023/08/01 00:16:02;;;;;;;;;;;24.30;52.90;;;;;;5037673;28;81319;-52
2023/08/01 00:18:28;;;;;;;;;;;24.30;52.90;;;;;;5034142;27;82316;-51
2023/08/01 00:20:54;;;;;;;;;;;24.30;52.90;;;;;;5036525;28;83067;-51
2023/08/01 00:23:19;;;;;;;;;;;24.30;53.00;;;;;;5036591;28;83288;-52
2023/08/01 00:25:51;;;;;;;;;;;24.30;52.80;;;;;;5037587;28;84811;-51
2023/08/01 00:28:17;;;;;;;;;;;24.30;52.90;;;;;;5036636;28;82613;-51
2023/08/01 00:30:42;;;;;;;;;;;24.30;53.50;;;;;;5041155;28;82042;-53
2023/08/01 00:33:08;;;;;;;;;;;24.20;52.90;;;;;;5032819;28;83125;-50
2023/08/01 00:35:33;;;;;;;;;;;24.30;52.90;;;;;;5032746;28;82257;-48
2023/08/01 00:37:59;;;;;;;;;;;24.20;52.90;;;;;;5038364;28;83068;-51
2023/08/01 00:40:29;;;;;;;;;;;24.20;52.90;;;;;;5033310;28;82566;-52
2023/08/01 00:42:56;;;;;;;;;;;24.20;52.90;;;;;;5035343;28;82308;-51
2023/08/01 00:45:24;;;;;;;;;;;24.10;53.10;;;;;;5034047;28;84146;-49
2023/08/01 00:47:50;;;;;;;;;;;24.20;53.00;;;;;;5033806;28;85510;-52
2023/08/01 00:50:16;;;;;;;;;;;24.20;53.00;;;;;;5035564;28;82094;-51
2023/08/01 00:52:41;;;;;;;;;;;24.10;53.00;;;;;;5036572;28;83993;-49
2023/08/01 00:55:07;;;;;;;;;;;24.20;53.00;;;;;;5034493;28;82114;-50
2023/08/01 00:57:33;;;;;;;;;;;24.10;53.00;;;;;;5037096;28;82480;-51
2023/08/01 00:59:59;;;;;;;;;;;24.10;53.00;;;;;;5033315;28;83201;-53
2023/08/01 01:02:24;;;;;;;;;;;24.10;53.00;;;;;;5036121;28;82052;-50
2023/08/01 01:04:50;;;;;;;;;;;24.10;53.00;;;;;;5037471;27;82391;-53
2023/08/01 01:07:17;;;;;;;;;;;24.10;53.00;;;;;;5034043;28;83778;-52
2023/08/01 01:09:42;;;;;;;;;;;24.10;53.00;;;;;;5033356;28;83413;-51
2023/08/01 01:12:08;;;;;;;;;;;24.00;53.00;;;;;;5039432;27;84197;-53
2023/08/01 01:14:33;;;;;;;;;;;24.00;53.00;;;;;;5033992;28;82171;-53
2023/08/01 01:16:59;;;;;;;;;;;24.00;53.00;;;;;;5035356;28;82468;-52
2023/08/01 01:19:25;;;;;;;;;;;24.00;53.00;;;;;;5034940;28;82775;-50
2023/08/01 01:21:51;;;;;;;;;;;24.00;53.00;;;;;;5031908;28;82514;-53
2023/08/01 01:24:17;;;;;;;;;;;24.00;53.10;;;;;;5034753;28;82682;-53
2023/08/01 01:26:43;;;;;;;;;;;24.00;53.10;;;;;;5035766;28;82978;-53
2023/08/01 01:29:08;;;;;;;;;;;23.90;53.00;;;;;;5035926;28;81486;-53
2023/08/01 01:31:34;;;;;;;;;;;23.90;53.10;;;;;;5033986;28;82032;-49
2023/08/01 01:34:00;;;;;;;;;;;23.90;53.00;;;;;;5039456;28;83476;-50
2023/08/01 01:36:26;;;;;;;;;;;23.90;53.10;;;;;;5032764;28;83045;-49
2023/08/01 01:38:51;;;;;;;;;;;23.90;53.10;;;;;;5037333;28;83624;-51
2023/08/01 01:41:17;;;;;;;;;;;23.90;53.10;;;;;;5032089;28;82088;-52
2023/08/01 01:43:44;;;;;;;;;;;23.90;53.10;;;;;;5037182;28;82434;-48
2023/08/01 01:46:09;;;;;;;;;;;23.90;53.10;;;;;;5034210;28;84407;-49
2023/08/01 01:48:35;;;;;;;;;;;23.80;53.10;;;;;;5036363;28;82160;-51
2023/08/01 01:51:00;;;;;;;;;;;23.80;53.10;;;;;;5032758;28;82651;-52
2023/08/01 01:53:26;;;;;;;;;;;23.80;53.10;;;;;;5033256;28;81985;-51
2023/08/01 01:55:51;;;;;;;;;;;23.80;53.10;;;;;;5034709;28;82087;-54
2023/08/01 01:58:17;;;;;;;;;;;23.80;53.10;;;;;;5034653;28;83089;-50
2023/08/01 02:00:42;;;;;;;;;;;23.70;53.10;;;;;;5033435;28;82903;-50
2023/08/01 02:03:10;;;;;;;;;;;23.70;53.10;;;;;;5034056;28;82535;-54
2023/08/01 02:05:36;;;;;;;;;;;23.70;53.10;;;;;;5033570;28;82197;-54
2023/08/01 02:08:01;;;;;;;;;;;23.70;53.10;;;;;;5033794;28;82226;-48
2023/08/01 02:10:27;;;;;;;;;;;23.70;53.10;;;;;;5031465;28;84007;-52
2023/08/01 02:12:52;;;;;;;;;;;23.70;53.10;;;;;;5032740;28;83181;-49
2023/08/01 02:15:18;;;;;;;;;;;23.70;53.10;;;;;;5036023;28;82439;-50
2023/08/01 02:17:43;;;;;;;;;;;23.70;53.10;;;;;;5034820;28;82495;-51
2023/08/01 02:20:09;;;;;;;;;;;23.60;53.10;;;;;;5036001;28;82066;-52
2023/08/01 02:22:34;;;;;;;;;;;23.60;53.10;;;;;;5034748;28;82375;-52
2023/08/01 02:25:00;;;;;;;;;;;23.60;53.10;;;;;;5033295;28;84117;-49
2023/08/01 02:27:25;;;;;;;;;;;23.70;53.20;;;;;;5034054;28;82036;-51
2023/08/01 02:29:51;;;;;;;;;;;23.60;53.10;;;;;;5036726;28;82413;-54
2023/08/01 02:32:17;;;;;;;;;;;23.60;53.20;;;;;;5034765;28;82992;-50
2023/08/01 02:34:42;;;;;;;;;;;23.50;53.20;;;;;;5033935;28;82138;-49
2023/08/01 02:37:08;;;;;;;;;;;23.60;53.20;;;;;;5036382;28;82520;-49
2023/08/01 02:39:34;;;;;;;;;;;23.50;53.10;;;;;;5036975;28;82768;-51
2023/08/01 02:42:00;;;;;;;;;;;23.50;53.20;;;;;;5034878;28;82502;-53
2023/08/01 02:44:25;;;;;;;;;;;23.50;53.10;;;;;;5035057;28;82988;-49
2023/08/01 02:46:51;;;;;;;;;;;23.50;53.20;;;;;;5031937;28;82128;-51
2023/08/01 02:49:16;;;;;;;;;;;23.50;53.10;;;;;;5035111;27;83785;-50
2023/08/01 02:51:42;;;;;;;;;;;23.50;53.20;;;;;;5033847;28;83125;-50
2023/08/01 02:54:07;;;;;;;;;;;23.40;53.20;;;;;;5036753;28;82081;-50
2023/08/01 02:56:33;;;;;;;;;;;23.40;53.30;;;;;;5031552;28;82528;-48
2023/08/01 02:58:58;;;;;;;;;;;23.40;53.20;;;;;;5036268;28;83101;-52
2023/08/01 03:01:24;;;;;;;;;;;23.40;53.20;;;;;;5037070;28;82053;-49
2023/08/01 03:03:49;;;;;;;;;;;23.40;53.20;;;;;;5035293;28;82306;-52
2023/08/01 03:06:15;;;;;;;;;;;23.40;53.20;;;;;;5035402;28;81587;-53
2023/08/01 03:08:41;;;;;;;;;;;23.40;53.30;;;;;;5034720;28;82252;-50
2023/08/01 03:11:06;;;;;;;;;;;23.40;53.30;;;;;;5035379;28;82230;-52
2023/08/01 03:13:32;;;;;;;;;;;23.30;53.30;;;;;;5035167;28;83023;-52
2023/08/01 03:15:57;;;;;;;;;;;23.30;53.20;;;;;;5033209;28;83916;-53
2023/08/01 03:18:23;;;;;;;;;;;23.30;53.20;;;;;;5032798;28;83405;-54
2023/08/01 03:20:48;;;;;;;;;;;23.30;53.20;;;;;;5035119;28;82471;-54
2023/08/01 03:23:14;;;;;;;;;;;23.30;53.20;;;;;;5031094;28;83459;-51
2023/08/01 03:25:40;;;;;;;;;;;23.30;53.30;;;;;;5031835;28;82690;-53
2023/08/01 03:28:05;;;;;;;;;;;23.30;53.30;;;;;;5034840;28;82416;-53
2023/08/01 03:30:34;;;;;;;;;;;23.30;53.30;;;;;;5030982;28;82293;-52
2023/08/01 03:33:00;;;;;;;;;;;23.20;53.20;;;;;;5031054;28;82154;-52
2023/08/01 03:35:26;;;;;;;;;;;23.20;53.30;;;;;;5034150;28;83791;-52
2023/08/01 03:37:51;;;;;;;;;;;23.30;53.30;;;;;;5034308;28;84352;-49
2023/08/01 03:40:17;;;;;;;;;;;23.20;53.30;;;;;;5039687;28;82173;-53
2023/08/01 03:42:44;;;;;;;;;;;23.10;53.30;;;;;;5037661;28;84001;-48
2023/08/01 03:45:10;;;;;;;;;;;23.10;53.30;;;;;;5035716;28;82173;-50
2023/08/01 03:47:35;;;;;;;;;;;23.10;53.20;;;;;;5036281;28;83301;-50
2023/08/01 03:50:01;;;;;;;;;;;23.10;53.30;;;;;;5035659;28;82546;-52
2023/08/01 03:52:26;;;;;;;;;;;23.10;53.20;;;;;;5034105;28;82724;-50
2023/08/01 03:54:55;;;;;;;;;;;23.10;53.30;;;;;;5038914;28;82425;-53
2023/08/01 03:57:21;;;;;;;;;;;23.10;53.30;;;;;;5036337;28;83010;-51
2023/08/01 03:59:46;;;;;;;;;;;23.10;53.40;;;;;;5035699;28;82462;-54
2023/08/01 04:02:12;;;;;;;;;;;23.00;53.40;;;;;;5038192;28;83613;-52
2023/08/01 04:04:37;;;;;;;;;;;23.00;53.30;;;;;;5038888;28;82454;-54
2023/08/01 04:07:03;;;;;;;;;;;23.10;53.30;;;;;;5033021;28;82439;-54
2023/08/01 04:09:28;;;;;;;;;;;23.10;53.30;;;;;;5038736;28;84430;-53
2023/08/01 04:11:54;;;;;;;;;;;23.00;53.20;;;;;;5032282;28;82844;-51
2023/08/01 04:14:19;;;;;;;;;;;23.00;53.30;;;;;;5038476;28;82795;-54
2023/08/01 04:16:45;;;;;;;;;;;23.00;53.30;;;;;;5034766;28;83635;-55
2023/08/01 04:19:10;;;;;;;;;;;23.00;53.30;;;;;;5036214;28;83042;-51
2023/08/01 04:21:36;;;;;;;;;;;23.00;53.30;;;;;;5034960;28;83362;-53
2023/08/01 04:24:01;;;;;;;;;;;23.00;53.30;;;;;;5035975;28;83840;-55
2023/08/01 04:26:27;;;;;;;;;;;23.00;53.40;;;;;;5038806;28;83716;-56
2023/08/01 04:28:52;;;;;;;;;;;23.00;53.30;;;;;;5032225;28;82095;-56
2023/08/01 04:31:18;;;;;;;;;;;23.00;53.30;;;;;;5035694;28;82059;-55
2023/08/01 04:33:44;;;;;;;;;;;22.90;53.30;;;;;;5040028;28;82300;-54
2023/08/01 04:36:10;;;;;;;;;;;22.90;53.20;;;;;;5031222;28;84471;-51
2023/08/01 04:38:35;;;;;;;;;;;22.90;53.40;;;;;;5038144;28;82181;-55
2023/08/01 04:41:02;;;;;;;;;;;22.90;53.40;;;;;;5035662;28;83871;-53
2023/08/01 04:43:28;;;;;;;;;;;22.90;53.30;;;;;;5036385;28;81275;-53
2023/08/01 04:45:53;;;;;;;;;;;22.90;54.00;;;;;;5034361;28;82214;-56
2023/08/01 04:48:19;;;;;;;;;;;22.90;53.40;;;;;;5035967;27;82544;-54
2023/08/01 04:50:45;;;;;;;;;;;22.90;53.30;;;;;;5035868;28;83044;-55
2023/08/01 04:53:11;;;;;;;;;;;22.90;53.30;;;;;;5034131;28;84120;-55
2023/08/01 04:55:36;;;;;;;;;;;22.90;53.30;;;;;;5032915;28;84114;-52
2023/08/01 04:58:02;;;;;;;;;;;22.90;53.30;;;;;;5032245;28;82172;-53
2023/08/01 05:00:27;;;;;;;;;;;22.90;53.40;;;;;;5037905;28;82077;-54
2023/08/01 05:02:53;;;;;;;;;;;22.90;53.40;;;;;;5031680;28;83026;-54
2023/08/01 05:05:18;;;;;;;;;;;22.80;53.40;;;;;;5038232;28;82214;-52
2023/08/01 05:07:44;;;;;;;;;;;22.80;53.40;;;;;;5034823;28;81630;-52
2023/08/01 05:10:09;;;;;;;;;;;22.80;53.40;;;;;;5038102;28;82167;-52
2023/08/01 05:12:35;;;;;;;;;;;22.80;53.50;;;;;;5035498;27;82320;-52
2023/08/01 05:15:00;;;;;;;;;;;22.80;53.50;;;;;;5032138;28;84114;-53
2023/08/01 05:17:26;;;;;;;;;;;22.80;53.50;;;;;;5032305;28;82166;-52
2023/08/01 05:19:51;;;;;;;;;;;22.80;53.50;;;;;;5034886;28;82560;-55
2023/08/01 05:22:17;;;;;;;;;;;22.80;53.50;;;;;;5035644;28;82716;-56
2023/08/01 05:24:42;;;;;;;;;;;22.80;53.50;;;;;;5030427;28;82917;-53
2023/08/01 05:27:08;;;;;;;;;;;22.80;53.70;;;;;;5033877;28;82256;-50
2023/08/01 05:29:33;;;;;;;;;;;22.80;53.60;;;;;;5039457;28;82982;-52
2023/08/01 05:31:59;;;;;;;;;;;22.80;53.50;;;;;;5034225;28;82720;-54
2023/08/01 05:34:24;;;;;;;;;;;22.80;53.60;;;;;;5035646;28;83821;-55
2023/08/01 05:36:50;;;;;;;;;;;22.80;53.80;;;;;;5034003;28;82110;-54
2023/08/01 05:39:16;;;;;;;;;;;22.80;53.80;;;;;;5035253;28;83856;-56
2023/08/01 05:41:42;;;;;;;;;;;22.80;53.70;;;;;;5030150;28;82338;-56
2023/08/01 05:44:07;;;;;;;;;;;22.80;53.80;;;;;;5030104;28;83857;-55
2023/08/01 05:46:33;;;;;;;;;;;22.80;53.80;;;;;;5036422;28;82956;-56
2023/08/01 05:48:59;;;;;;;;;;;22.80;53.80;;;;;;5031222;28;83026;-50
2023/08/01 05:51:24;;;;;;;;;;;22.80;53.80;;;;;;5033443;28;82283;-52
2023/08/01 05:53:49;;;;;;;;;;;22.80;53.80;;;;;;5029649;28;83150;-49
2023/08/01 05:56:15;;;;;;;;;;;22.80;53.80;;;;;;5034354;28;81636;-50
2023/08/01 05:58:41;;;;;;;;;;;22.80;53.80;;;;;;5032406;28;83254;-49
2023/08/01 06:01:06;;;;;;;;;;;22.80;53.80;;;;;;5033246;28;83117;-49
2023/08/01 06:03:32;;;;;;;;;;;22.80;54.00;;;;;;5028827;28;82992;-48
2023/08/01 06:05:57;;;;;;;;;;;22.80;53.80;;;;;;5035782;28;83450;-49
2023/08/01 06:08:23;;;;;;;;;;;22.80;53.90;;;;;;5034624;28;83054;-52
2023/08/01 06:10:48;;;;;;;;;;;22.80;54.00;;;;;;5031126;28;82493;-54
2023/08/01 06:13:14;;;;;;;;;;;22.80;54.00;;;;;;5029928;28;83867;-53
2023/08/01 06:15:39;;;;;;;;;;;22.80;54.00;;;;;;5037152;28;82105;-53
2023/08/01 06:18:05;;;;;;;;;;;22.80;54.10;;;;;;5033409;28;82486;-52
2023/08/01 06:20:30;;;;;;;;;;;22.80;54.00;;;;;;5031490;28;82187;-52
2023/08/01 06:22:56;;;;;;;;;;;22.80;54.20;;;;;;5028981;28;82147;-48
2023/08/01 06:25:21;;;;;;;;;;;22.80;54.00;;;;;;5034769;28;82033;-52
2023/08/01 06:27:47;;;;;;;;;;;22.80;54.10;;;;;;5032511;28;83894;-55
2023/08/01 06:30:12;;;;;;;;;;;22.70;54.10;;;;;;5034782;28;82431;-51
2023/08/01 06:32:38;;;;;;;;;;;22.80;54.10;;;;;;5032091;28;82398;-50
2023/08/01 06:35:03;;;;;;;;;;;22.80;54.00;;;;;;5035563;28;83472;-51
2023/08/01 06:37:29;;;;;;;;;;;22.80;54.00;;;;;;5035260;27;82773;-53
2023/08/01 06:39:55;;;;;;;;;;;22.80;54.10;;;;;;5031076;28;82995;-52
2023/08/01 06:42:20;;;;;;;;;;;22.80;54.10;;;;;;5034005;28;82089;-52
2023/08/01 06:44:46;;;;;;;;;;;22.80;54.20;;;;;;5034021;28;83258;-48
2023/08/01 06:47:11;;;;;;;;;;;22.80;54.00;;;;;;5037715;28;83136;-53
2023/08/01 06:49:37;;;;;;;;;;;22.80;54.00;;;;;;5035483;28;83845;-51
2023/08/01 06:52:02;;;;;;;;;;;22.80;54.10;;;;;;5033135;28;82903;-52
2023/08/01 06:54:28;;;;;;;;;;;22.80;54.10;;;;;;5037462;28;82861;-54
2023/08/01 06:56:53;;;;;;;;;;;22.80;54.10;;;;;;5033307;28;82161;-55
2023/08/01 06:59:19;;;;;;;;;;;22.80;54.30;;;;;;5035024;28;82160;-55
2023/08/01 07:01:44;;;;;;;;;;;22.80;54.20;;;;;;5030995;28;82128;-55
2023/08/01 07:04:10;;;;;;;;;;;22.80;54.20;;;;;;5032615;28;82511;-57
2023/08/01 07:06:36;;;;;;;;;;;22.80;54.30;;;;;;5033227;28;83151;-53
2023/08/01 07:09:01;;;;;;;;;;;22.80;54.20;;;;;;5033299;28;83092;-54
2023/08/01 07:11:27;;;;;;;;;;;22.80;54.20;;;;;;5034226;28;81993;-51
2023/08/01 07:13:52;;;;;;;;;;;22.80;54.20;;;;;;5039158;28;83233;-56
2023/08/01 07:16:18;;;;;;;;;;;22.80;54.20;;;;;;5037526;28;83166;-54
2023/08/01 07:18:43;;;;;;;;;;;22.80;54.20;;;;;;5034326;28;82524;-53
2023/08/01 07:21:09;;;;;;;;;;;22.80;54.30;;;;;;5036389;28;81992;-53
2023/08/01 07:23:35;;;;;;;;;;;22.80;54.20;;;;;;5039968;28;82626;-55
2023/08/01 07:26:00;;;;;;;;;;;22.80;54.30;;;;;;5034332;28;83593;-54
2023/08/01 07:28:26;;;;;;;;;;;22.80;54.30;;;;;;5035347;28;82246;-53
2023/08/01 07:30:58;;;;;;;;;;;22.80;54.20;;;;;;5036441;28;82767;-54
2023/08/01 07:33:24;;;;;;;;;;;22.80;54.20;;;;;;5038079;28;82707;-51
2023/08/01 07:35:49;;;;;;;;;;;22.80;54.20;;;;;;5036816;28;83065;-53
2023/08/01 07:38:15;;;;;;;;;;;22.80;54.30;;;;;;5035035;28;82447;-52
2023/08/01 07:40:40;;;;;;;;;;;22.80;54.20;;;;;;5039072;28;83444;-53
2023/08/01 07:43:06;;;;;;;;;;;22.80;54.30;;;;;;5036893;28;83358;-52
2023/08/01 07:45:33;;;;;;;;;;;22.80;54.30;;;;;;5035979;28;84501;-53
2023/08/01 07:47:59;;;;;;;;;;;22.80;54.20;;;;;;5040744;28;82099;-53
2023/08/01 07:50:25;;;;;;;;;;;22.80;54.20;;;;;;5034940;28;82749;-53
2023/08/01 07:52:51;;;;;;;;;;;22.80;54.30;;;;;;5037107;28;83065;-52
2023/08/01 07:55:18;;;;;;;;;;;22.80;54.20;;;;;;5033008;28;82040;-49
2023/08/01 07:57:44;;;;;;;;;;;22.80;54.20;;;;;;5033743;28;82434;-51
2023/08/01 08:00:10;;;;;;;;;;;22.80;54.30;;;;;;5039163;28;82990;-53
2023/08/01 08:02:35;;;;;;;;;;;22.80;53.90;;;;;;5037110;28;83639;-51
2023/08/01 08:05:01;;;;;;;;;;;22.80;54.00;;;;;;5030844;27;84015;-51
2023/08/01 08:07:26;;;;;;;;;;;22.80;54.00;;;;;;5032258;28;82163;-49
2023/08/01 08:09:54;;;;;;;;;;;22.80;54.20;;;;;;5039086;28;82384;-53
2023/08/01 08:12:20;;;;;;;;;;;22.80;54.30;;;;;;5032218;28;84434;-56
2023/08/01 08:14:46;;;;;;;;;;;22.80;54.20;;;;;;5033423;28;82093;-56
2023/08/01 08:17:11;;;;;;;;;;;22.80;54.20;;;;;;5034442;28;82452;-53
2023/08/01 08:19:37;;;;;;;;;;;22.80;54.30;;;;;;5033913;28;84730;-54
2023/08/01 08:22:02;;;;;;;;;;;22.90;54.20;;;;;;5038444;28;81388;-53
2023/08/01 08:24:28;;;;;;;;;;;22.80;54.00;;;;;;5035488;28;82838;-55
2023/08/01 08:26:54;;;;;;;;;;;22.80;54.10;;;;;;5033678;28;83689;-52
2023/08/01 08:29:19;;;;;;;;;;;22.80;54.00;;;;;;5034863;28;82925;-53
2023/08/01 08:31:45;;;;;;;;;;;22.90;54.10;;;;;;5035806;28;83662;-53
2023/08/01 08:34:10;;;;;;;;;;;22.90;54.10;;;;;;5035623;28;83237;-51
2023/08/01 08:36:36;;;;;;;;;;;22.90;53.90;;;;;;5035079;28;82448;-54
2023/08/01 08:39:03;;;;;;;;;;;22.90;54.00;;;;;;5037797;28;84380;-54
2023/08/01 08:41:33;;;;;;;;;;;22.90;53.90;;;;;;5038041;28;82625;-53
2023/08/01 08:43:59;;;;;;;;;;;22.80;54.00;;;;;;5031918;27;84584;-53
2023/08/01 08:46:29;;;;;;;;;;;22.80;53.90;;;;;;5035847;28;81598;-54
2023/08/01 08:48:56;;;;;;;;;;;22.90;53.80;;;;;;5038519;28;83310;-51
2023/08/01 08:51:21;;;;;;;;;;;22.90;54.00;;;;;;5030947;28;83054;-56
2023/08/01 08:53:48;;;;;;;;;;;22.90;54.10;;;;;;5034173;28;83136;-57
2023/08/01 08:56:14;;;;;;;;;;;22.90;54.00;;;;;;5036768;28;83837;-55
2023/08/01 08:58:40;;;;;;;;;;;22.90;54.00;;;;;;5036710;28;83954;-53
2023/08/01 09:01:07;;;;;;;;;;;23.00;54.00;;;;;;5035138;28;82107;-54
2023/08/01 09:03:33;;;;;;;;;;;23.00;54.00;;;;;;5031895;28;83884;-56
2023/08/01 09:06:11;;;;;;;;;;;22.90;53.70;;;;;;5037090;28;83067;-56
2023/08/01 09:08:39;;;;;;;;;;;22.90;53.80;;;;;;5035015;28;82206;-55
2023/08/01 09:11:04;;;;;;;;;;;23.00;54.10;;;;;;5034963;28;82360;-54
2023/08/01 09:13:30;;;;;;;;;;;23.00;54.10;;;;;;5028929;28;82711;-51
2023/08/01 09:15:56;;;;;;;;;;;23.00;53.80;;;;;;5035630;28;82388;-54
2023/08/01 09:18:21;;;;;;;;;;;23.00;53.80;;;;;;5033741;28;84751;-56
2023/08/01 09:20:48;;;;;;;;;;;23.00;53.90;;;;;;5035430;27;82209;-54
2023/08/01 09:23:13;;;;;;;;;;;23.00;53.90;;;;;;5032784;28;82439;-55
2023/08/01 09:25:40;;;;;;;;;;;23.00;53.90;;;;;;5040673;28;82086;-53
2023/08/01 09:28:19;;;;;;;;;;;23.00;53.80;;;;;;5034234;27;82389;-55
2023/08/01 09:30:45;;;;;;;;;;;23.00;53.90;;;;;;5030346;28;82980;-57
2023/08/01 09:33:11;;;;;;;;;;;23.10;54.00;;;;;;5034381;27;82068;-55
2023/08/01 09:35:39;;;;;;;;;;;23.10;54.00;;;;;;5032899;28;82459;-56
2023/08/01 09:38:05;;;;;;;;;;;23.10;54.00;;;;;;5034487;28;83033;-57
2023/08/01 09:40:36;;;;;;;;;;;23.10;53.90;;;;;;5033498;28;82130;-57
2023/08/01 09:43:02;;;;;;;;;;;23.10;53.70;;;;;;5033839;28;82905;-56
2023/08/01 09:45:28;;;;;;;;;;;23.10;53.80;;;;;;5038288;28;84334;-54
2023/08/01 09:47:53;;;;;;;;;;;23.10;53.80;;;;;;5035029;28;82098;-54
2023/08/01 09:50:22;;;;;;;;;;;23.10;53.80;;;;;;5031890;28;83103;-55
2023/08/01 09:52:52;;;;;;;;;;;23.10;53.70;;;;;;5036817;28;82112;-52
2023/08/01 09:55:31;;;;;;;;;;;23.20;53.80;;;;;;5036835;28;82493;-55
2023/08/01 09:57:57;;;;;;;;;;;23.20;53.70;;;;;;5033948;28;82847;-53
2023/08/01 10:00:22;;;;;;;;;;;23.10;53.80;;;;;;5033143;28;81382;-49
2023/08/01 10:02:49;;;;;;;;;;;23.20;53.80;;;;;;5037810;28;82011;-53
2023/08/01 10:05:15;;;;;;;;;;;23.20;53.80;;;;;;5036419;28;83071;-53
2023/08/01 10:07:41;;;;;;;;;;;23.20;53.80;;;;;;5031148;28;83127;-52
2023/08/01 10:10:06;;;;;;;;;;;23.20;53.70;;;;;;5034779;28;84125;-53
2023/08/01 10:12:50;;;;;;;;;;;23.20;53.70;;;;;;5036103;28;82422;-53
2023/08/01 10:15:16;;;;;;;;;;;23.20;53.80;;;;;;5030690;28;82655;-52
2023/08/01 10:17:41;;;;;;;;;;;23.30;53.80;;;;;;5035997;28;82716;-53
2023/08/01 10:20:07;;;;;;;;;;;23.30;53.80;;;;;;5029242;28;82199;-54
2023/08/01 10:22:33;;;;;;;;;;;23.30;54.30;;;;;;5035866;28;84260;-53
2023/08/01 10:24:58;;;;;;;;;;;23.40;53.80;;;;;;5035108;28;82248;-53
2023/08/01 10:27:24;;;;;;;;;;;23.40;53.80;;;;;;5034919;28;82093;-52
2023/08/01 10:29:59;;;;;;;;;;;23.40;53.70;;;;;;5034190;28;82427;-52
2023/08/01 10:32:32;;;;;;;;;;;23.40;53.70;;;;;;5035796;28;83997;-54
2023/08/01 10:34:58;;;;;;;;;;;23.40;53.70;;;;;;5029529;28;84193;-50
2023/08/01 10:37:24;;;;;;;;;;;23.50;53.70;;;;;;5034213;28;82687;-52
2023/08/01 10:39:59;;;;;;;;;;;23.40;53.60;;;;;;5033419;28;82163;-53
2023/08/01 10:42:25;;;;;;;;;;;23.50;53.60;;;;;;5035533;28;83920;-53
2023/08/01 10:44:50;;;;;;;;;;;23.50;53.50;;;;;;5028790;28;84149;-54
2023/08/01 10:47:25;;;;;;;;;;;23.50;53.60;;;;;;5034718;28;82189;-53
2023/08/01 10:49:50;;;;;;;;;;;23.50;53.50;;;;;;5039097;27;83460;-50
2023/08/01 10:52:21;;;;;;;;;;;23.50;53.50;;;;;;5037879;28;82935;-53
2023/08/01 10:54:47;;;;;;;;;;;23.50;53.50;;;;;;5034765;28;82233;-51
2023/08/01 10:57:18;;;;;;;;;;;23.50;53.50;;;;;;5033556;28;84137;-54
2023/08/01 10:59:44;;;;;;;;;;;23.60;53.50;;;;;;5035299;28;81999;-50
2023/08/01 11:02:10;;;;;;;;;;;23.60;53.50;;;;;;5039820;28;82469;-52
2023/08/01 11:04:35;;;;;;;;;;;23.60;53.50;;;;;;5035465;28;83129;-52
2023/08/01 11:07:01;;;;;;;;;;;23.60;53.40;;;;;;5033046;28;82257;-54
2023/08/01 11:09:27;;;;;;;;;;;23.60;53.40;;;;;;5038585;28;82366;-53
2023/08/01 11:11:54;;;;;;;;;;;23.60;53.30;;;;;;5038577;28;83226;-51
2023/08/01 11:14:20;;;;;;;;;;;23.70;53.40;;;;;;5035144;28;82006;-52
2023/08/01 11:16:46;;;;;;;;;;;23.70;53.30;;;;;;5036813;27;82196;-49
2023/08/01 11:19:23;;;;;;;;;;;23.70;53.40;;;;;;5039537;28;82015;-54
2023/08/01 11:21:49;;;;;;;;;;;23.70;53.40;;;;;;5033026;28;84284;-53
2023/08/01 11:24:14;;;;;;;;;;;23.70;53.30;;;;;;5033246;28;82224;-52
2023/08/01 11:26:41;;;;;;;;;;;23.80;53.30;;;;;;5035771;28;82211;-54
2023/08/01 11:29:06;;;;;;;;;;;23.80;53.30;;;;;;5039204;27;83017;-54
2023/08/01 11:31:32;;;;;;;;;;;23.80;53.30;;;;;;5029803;28;83252;-50
2023/08/01 11:33:58;;;;;;;;;;;23.90;53.30;;;;;;5034269;28;82104;-51
2023/08/01 11:36:27;;;;;;;;;;;23.80;53.20;;;;;;5038129;28;82063;-52
2023/08/01 11:38:54;;;;;;;;;;;23.90;53.20;;;;;;5037707;28;81242;-54
2023/08/01 11:41:19;;;;;;;;;;;23.90;53.20;;;;;;5029968;27;82026;-54
2023/08/01 11:43:45;;;;;;;;;;;23.90;53.10;;;;;;5034492;28;82932;-53
2023/08/01 11:46:11;;;;;;;;;;;23.90;53.10;;;;;;5036291;28;83076;-52
2023/08/01 11:48:36;;;;;;;;;;;23.90;53.10;;;;;;5038185;28;83134;-53
2023/08/01 11:51:02;;;;;;;;;;;24.00;53.10;;;;;;5032366;28;82997;-52
2023/08/01 11:53:28;;;;;;;;;;;24.00;53.10;;;;;;5034342;28;82076;-53
2023/08/01 11:55:56;;;;;;;;;;;24.00;53.10;;;;;;5037551;28;82299;-52
2023/08/01 11:58:31;;;;;;;;;;;24.00;53.00;;;;;;5039696;28;82862;-54
2023/08/01 12:01:06;;;;;;;;;;;24.00;53.00;;;;;;5033027;28;82666;-54
2023/08/01 12:03:33;;;;;;;;;;;24.00;53.00;;;;;;5039279;28;82285;-54
2023/08/01 12:06:03;;;;;;;;;;;24.10;52.90;;;;;;5040150;28;82239;-54
2023/08/01 12:08:32;;;;;;;;;;;24.10;53.00;;;;;;5039776;28;82653;-53
2023/08/01 12:10:58;;;;;;;;;;;24.10;52.90;;;;;;5030420;28;85572;-52
2023/08/01 12:13:24;;;;;;;;;;;24.10;52.90;;;;;;5038253;28;82132;-52
2023/08/01 12:15:53;;;;;;;;;;;24.20;52.90;;;;;;5034769;28;82515;-54
2023/08/01 12:18:25;;;;;;;;;;;24.20;52.90;;;;;;5031262;28;84460;-53
2023/08/01 12:20:51;;;;;;;;;;;24.20;52.90;;;;;;5039891;28;82153;-50
2023/08/01 12:23:17;;;;;;;;;;;24.20;52.80;;;;;;5036710;28;83248;-50
2023/08/01 12:25:43;;;;;;;;;;;24.20;52.80;;;;;;5039943;28;82782;-51
2023/08/01 12:28:08;;;;;;;;;;;24.30;52.80;;;;;;5033842;28;83106;-54
2023/08/01 12:30:33;;;;;;;;;;;24.30;52.80;;;;;;5033063;28;83518;-50
2023/08/01 12:33:00;;;;;;;;;;;24.30;52.80;;;;;;5038492;28;82069;-54
2023/08/01 12:35:27;;;;;;;;;;;24.30;52.70;;;;;;5032889;28;83793;-52
2023/08/01 12:37:53;;;;;;;;;;;24.30;52.70;;;;;;5032186;28;84524;-52
2023/08/01 12:40:19;;;;;;;;;;;24.30;53.20;;;;;;5035186;28;82117;-55
2023/08/01 12:42:44;;;;;;;;;;;24.40;52.70;;;;;;5040839;28;82500;-52
2023/08/01 12:45:10;;;;;;;;;;;24.40;52.70;;;;;;5031101;28;82466;-55
2023/08/01 12:47:35;;;;;;;;;;;24.40;52.60;;;;;;5026730;28;82779;-54
2023/08/01 12:50:01;;;;;;;;;;;24.40;52.60;;;;;;5037467;28;82624;-52
2023/08/01 12:52:26;;;;;;;;;;;24.40;52.50;;;;;;5034977;28;82409;-54
2023/08/01 12:54:52;;;;;;;;;;;24.50;52.60;;;;;;5034543;28;84007;-54
2023/08/01 12:57:17;;;;;;;;;;;24.50;52.50;;;;;;5030895;28;83040;-52
2023/08/01 12:59:43;;;;;;;;;;;24.50;52.50;;;;;;5037216;28;83014;-50
2023/08/01 13:02:09;;;;;;;;;;;24.50;52.50;;;;;;5035382;28;83401;-53
2023/08/01 13:04:34;;;;;;;;;;;24.50;52.50;;;;;;5035542;28;82543;-54
2023/08/01 13:07:00;;;;;;;;;;;24.60;52.50;;;;;;5032414;28;84178;-52
2023/08/01 13:09:25;;;;;;;;;;;24.60;52.50;;;;;;5036832;28;83214;-49
2023/08/01 13:11:51;;;;;;;;;;;24.60;53.00;;;;;;5037191;28;82213;-55
2023/08/01 13:14:16;;;;;;;;;;;24.60;52.40;;;;;;5032648;28;82033;-55
2023/08/01 13:16:42;;;;;;;;;;;24.70;52.50;;;;;;5032903;28;84457;-55
2023/08/01 13:19:07;;;;;;;;;;;24.60;52.40;;;;;;5036522;28;82084;-52
2023/08/01 13:21:36;;;;;;;;;;;24.70;52.40;;;;;;5036911;28;82551;-54
2023/08/01 13:24:04;;;;;;;;;;;24.70;52.40;;;;;;5029807;28;83900;-54
2023/08/01 13:26:33;;;;;;;;;;;24.70;52.40;;;;;;5038306;28;81957;-51
2023/08/01 13:28:59;;;;;;;;;;;24.70;52.30;;;;;;5035743;28;83102;-52
2023/08/01 13:31:25;;;;;;;;;;;24.80;52.40;;;;;;5031694;28;82099;-54
2023/08/01 13:33:51;;;;;;;;;;;24.80;52.30;;;;;;5034540;28;82586;-54
2023/08/01 13:36:19;;;;;;;;;;;24.80;52.30;;;;;;5035190;28;83402;-53
2023/08/01 13:38:44;;;;;;;;;;;24.90;52.30;;;;;;5034547;28;82075;-49
2023/08/01 13:41:10;;;;;;;;;;;24.90;52.40;;;;;;5036255;28;82404;-54
2023/08/01 13:43:36;;;;;;;;;;;24.90;52.30;;;;;;5033862;28;83167;-53
2023/08/01 13:46:09;;;;;;;;;;;25.00;52.30;;;;;;5036441;28;82775;-53
2023/08/01 13:48:35;;;;;;;;;;;25.00;52.40;;;;;;5034301;28;84215;-53
2023/08/01 13:51:00;;;;;;;;;;;25.00;52.30;;;;;;5034645;28;82137;-54
2023/08/01 13:53:26;;;;;;;;;;;25.00;52.30;;;;;;5031874;28;82036;-54
2023/08/01 13:55:51;;;;;;;;;;;25.00;52.40;;;;;;5034936;28;83496;-51
2023/08/01 13:58:17;;;;;;;;;;;25.00;52.40;;;;;;5035811;28;82057;-50
2023/08/01 14:00:42;;;;;;;;;;;25.00;52.40;;;;;;5036233;28;82115;-53
2023/08/01 14:03:08;;;;;;;;;;;25.10;52.60;;;;;;5034696;28;82956;-52
2023/08/01 14:05:33;;;;;;;;;;;25.00;52.50;;;;;;5031975;28;81978;-55
2023/08/01 14:07:59;;;;;;;;;;;25.10;52.70;;;;;;5035575;28;82012;-53
2023/08/01 14:10:25;;;;;;;;;;;25.10;52.70;;;;;;5033527;28;82213;-54